sensor_id;sensor_type;location;lat;lon;timestamp;P1;durP1;ratioP1;P2;durP2;ratioP2
13568;SDS011;6856;51.460;7.158;2023-04-25T00:01:14;10.13;;;3.47;;
13568;SDS011;6856;51.460;7.158;2023-04-25T00:03:49;6.07;;;3.50;;
13568;SDS011;6856;51.460;7.158;2023-04-25T00:06:26;6.07;;;3.37;;
13568;SDS011;6856;51.460;7.158;2023-04-25T00:09:01;6.20;;;3.00;;
13568;SDS011;6856;51.460;7.158;2023-04-25T00:11:39;8.00;;;3.20;;
13568;SDS011;6856;51.460;7.158;2023-04-25T00:14:15;7.10;;;3.47;;
13568;SDS011;6856;51.460;7.158;2023-04-25T00:16:52;6.90;;;3.37;;
13568;SDS011;6856;51.460;7.158;2023-04-25T00:19:26;5.90;;;3.40;;
13568;SDS011;6856;51.460;7.158;2023-04-25T00:22:00;6.33;;;3.00;;
13568;SDS011;6856;51.460;7.158;2023-04-25T00:24:34;7.23;;;3.50;;
13568;SDS011;6856;51.460;7.158;2023-04-25T00:27:08;7.90;;;3.97;;
13568;SDS011;6856;51.460;7.158;2023-04-25T00:29:43;5.93;;;3.33;;
13568;SDS011;6856;51.460;7.158;2023-04-25T00:32:17;6.77;;;3.50;;
13568;SDS011;6856;51.460;7.158;2023-04-25T00:34:51;7.87;;;3.60;;
13568;SDS011;6856;51.460;7.158;2023-04-25T00:37:24;8.23;;;3.47;;
13568;SDS011;6856;51.460;7.158;2023-04-25T00:40:00;5.67;;;3.40;;
13568;SDS011;6856;51.460;7.158;2023-04-25T00:42:35;6.40;;;3.63;;
13568;SDS011;6856;51.460;7.158;2023-04-25T00:45:12;6.17;;;3.20;;
13568;SDS011;6856;51.460;7.158;2023-04-25T00:47:47;5.83;;;3.30;;
13568;SDS011;6856;51.460;7.158;2023-04-25T00:50:21;5.27;;;2.80;;
13568;SDS011;6856;51.460;7.158;2023-04-25T00:52:55;5.20;;;3.23;;
13568;SDS011;6856;51.460;7.158;2023-04-25T00:55:29;5.87;;;3.73;;
13568;SDS011;6856;51.460;7.158;2023-04-25T00:58:06;7.73;;;3.83;;
13568;SDS011;6856;51.460;7.158;2023-04-25T01:00:45;5.37;;;3.40;;
13568;SDS011;6856;51.460;7.158;2023-04-25T01:03:19;6.77;;;3.50;;
13568;SDS011;6856;51.460;7.158;2023-04-25T01:05:55;7.53;;;3.50;;
13568;SDS011;6856;51.460;7.158;2023-04-25T01:08:29;7.10;;;3.60;;
13568;SDS011;6856;51.460;7.158;2023-04-25T01:11:04;6.50;;;3.77;;
13568;SDS011;6856;51.460;7.158;2023-04-25T01:13:41;5.70;;;3.90;;
13568;SDS011;6856;51.460;7.158;2023-04-25T01:16:17;7.40;;;3.60;;
13568;SDS011;6856;51.460;7.158;2023-04-25T01:18:54;6.00;;;3.63;;
13568;SDS011;6856;51.460;7.158;2023-04-25T01:21:30;6.37;;;3.60;;
13568;SDS011;6856;51.460;7.158;2023-04-25T01:24:03;5.87;;;3.87;;
13568;SDS011;6856;51.460;7.158;2023-04-25T01:26:38;7.40;;;4.33;;
13568;SDS011;6856;51.460;7.158;2023-04-25T01:29:20;8.20;;;4.23;;
13568;SDS011;6856;51.460;7.158;2023-04-25T01:31:54;6.27;;;3.63;;
13568;SDS011;6856;51.460;7.158;2023-04-25T01:34:30;7.63;;;4.10;;
13568;SDS011;6856;51.460;7.158;2023-04-25T01:37:05;6.00;;;4.30;;
13568;SDS011;6856;51.460;7.158;2023-04-25T01:39:39;7.47;;;3.97;;
13568;SDS011;6856;51.460;7.158;2023-04-25T01:42:13;7.40;;;4.17;;
13568;SDS011;6856;51.460;7.158;2023-04-25T01:44:48;7.77;;;4.43;;
13568;SDS011;6856;51.460;7.158;2023-04-25T01:47:22;6.17;;;4.67;;
13568;SDS011;6856;51.460;7.158;2023-04-25T01:49:55;6.20;;;4.60;;
13568;SDS011;6856;51.460;7.158;2023-04-25T01:52:31;7.83;;;4.70;;
13568;SDS011;6856;51.460;7.158;2023-04-25T01:55:05;9.30;;;4.87;;
13568;SDS011;6856;51.460;7.158;2023-04-25T01:57:40;8.70;;;5.10;;
13568;SDS011;6856;51.460;7.158;2023-04-25T02:00:16;8.00;;;4.60;;
13568;SDS011;6856;51.460;7.158;2023-04-25T02:03:02;8.57;;;4.67;;
13568;SDS011;6856;51.460;7.158;2023-04-25T02:05:37;7.50;;;4.33;;
13568;SDS011;6856;51.460;7.158;2023-04-25T02:08:13;7.33;;;4.27;;
13568;SDS011;6856;51.460;7.158;2023-04-25T02:10:47;8.90;;;4.80;;
13568;SDS011;6856;51.460;7.158;2023-04-25T02:13:21;6.10;;;4.17;;
13568;SDS011;6856;51.460;7.158;2023-04-25T02:15:54;6.30;;;3.97;;
13568;SDS011;6856;51.460;7.158;2023-04-25T02:18:28;8.07;;;3.97;;
13568;SDS011;6856;51.460;7.158;2023-04-25T02:21:03;5.77;;;4.17;;
13568;SDS011;6856;51.460;7.158;2023-04-25T02:23:38;6.60;;;4.00;;
13568;SDS011;6856;51.460;7.158;2023-04-25T02:26:12;6.00;;;3.93;;
13568;SDS011;6856;51.460;7.158;2023-04-25T02:28:46;5.53;;;3.97;;
13568;SDS011;6856;51.460;7.158;2023-04-25T02:31:23;5.57;;;3.77;;
13568;SDS011;6856;51.460;7.158;2023-04-25T02:33:57;6.90;;;4.20;;
13568;SDS011;6856;51.460;7.158;2023-04-25T02:36:31;8.63;;;4.57;;
13568;SDS011;6856;51.460;7.158;2023-04-25T02:39:07;8.50;;;4.27;;
13568;SDS011;6856;51.460;7.158;2023-04-25T02:41:45;7.67;;;4.17;;
13568;SDS011;6856;51.460;7.158;2023-04-25T02:44:19;6.03;;;3.73;;
13568;SDS011;6856;51.460;7.158;2023-04-25T02:46:53;6.63;;;3.87;;
13568;SDS011;6856;51.460;7.158;2023-04-25T02:49:27;7.00;;;3.67;;
13568;SDS011;6856;51.460;7.158;2023-04-25T02:52:01;4.97;;;3.23;;
13568;SDS011;6856;51.460;7.158;2023-04-25T02:54:37;5.83;;;3.40;;
13568;SDS011;6856;51.460;7.158;2023-04-25T02:57:12;5.90;;;2.93;;
13568;SDS011;6856;51.460;7.158;2023-04-25T02:59:46;5.57;;;3.57;;
13568;SDS011;6856;51.460;7.158;2023-04-25T03:02:20;6.63;;;3.40;;
13568;SDS011;6856;51.460;7.158;2023-04-25T03:04:54;5.50;;;3.23;;
13568;SDS011;6856;51.460;7.158;2023-04-25T03:07:31;7.20;;;3.17;;
13568;SDS011;6856;51.460;7.158;2023-04-25T03:10:07;5.73;;;3.57;;
13568;SDS011;6856;51.460;7.158;2023-04-25T03:12:42;6.63;;;3.70;;
13568;SDS011;6856;51.460;7.158;2023-04-25T03:15:16;5.93;;;3.43;;
13568;SDS011;6856;51.460;7.158;2023-04-25T03:17:50;5.87;;;3.20;;
13568;SDS011;6856;51.460;7.158;2023-04-25T03:20:24;5.93;;;3.37;;
13568;SDS011;6856;51.460;7.158;2023-04-25T03:22:58;8.27;;;3.80;;
13568;SDS011;6856;51.460;7.158;2023-04-25T03:25:34;6.07;;;3.67;;
13568;SDS011;6856;51.460;7.158;2023-04-25T03:28:08;6.17;;;3.23;;
13568;SDS011;6856;51.460;7.158;2023-04-25T03:30:42;6.53;;;3.33;;
13568;SDS011;6856;51.460;7.158;2023-04-25T03:33:15;6.27;;;3.77;;
13568;SDS011;6856;51.460;7.158;2023-04-25T03:35:49;5.23;;;3.50;;
13568;SDS011;6856;51.460;7.158;2023-04-25T03:38:25;6.50;;;3.20;;
13568;SDS011;6856;51.460;7.158;2023-04-25T03:41:01;9.13;;;3.97;;
13568;SDS011;6856;51.460;7.158;2023-04-25T03:43:37;6.77;;;3.43;;
13568;SDS011;6856;51.460;7.158;2023-04-25T03:46:11;7.30;;;3.70;;
13568;SDS011;6856;51.460;7.158;2023-04-25T03:48:45;7.07;;;3.83;;
13568;SDS011;6856;51.460;7.158;2023-04-25T03:51:21;5.87;;;3.47;;
13568;SDS011;6856;51.460;7.158;2023-04-25T03:53:55;5.77;;;3.60;;
13568;SDS011;6856;51.460;7.158;2023-04-25T03:56:32;7.73;;;4.03;;
13568;SDS011;6856;51.460;7.158;2023-04-25T03:59:06;5.77;;;3.53;;
13568;SDS011;6856;51.460;7.158;2023-04-25T04:01:41;7.00;;;3.67;;
13568;SDS011;6856;51.460;7.158;2023-04-25T04:04:15;7.37;;;3.27;;
13568;SDS011;6856;51.460;7.158;2023-04-25T04:06:49;6.50;;;3.10;;
13568;SDS011;6856;51.460;7.158;2023-04-25T04:09:24;8.10;;;3.83;;
13568;SDS011;6856;51.460;7.158;2023-04-25T04:12:00;6.60;;;3.30;;
13568;SDS011;6856;51.460;7.158;2023-04-25T04:14:39;7.67;;;3.30;;
13568;SDS011;6856;51.460;7.158;2023-04-25T04:17:13;6.80;;;2.57;;
13568;SDS011;6856;51.460;7.158;2023-04-25T04:19:47;6.83;;;2.80;;
13568;SDS011;6856;51.460;7.158;2023-04-25T04:22:21;4.90;;;2.20;;
13568;SDS011;6856;51.460;7.158;2023-04-25T04:24:55;5.67;;;2.13;;
13568;SDS011;6856;51.460;7.158;2023-04-25T04:27:33;4.70;;;2.10;;
13568;SDS011;6856;51.460;7.158;2023-04-25T04:30:21;6.80;;;2.20;;
13568;SDS011;6856;51.460;7.158;2023-04-25T04:32:56;4.30;;;1.80;;
13568;SDS011;6856;51.460;7.158;2023-04-25T04:35:30;6.67;;;2.67;;
13568;SDS011;6856;51.460;7.158;2023-04-25T04:38:04;4.63;;;2.10;;
13568;SDS011;6856;51.460;7.158;2023-04-25T04:40:38;3.80;;;2.27;;
13568;SDS011;6856;51.460;7.158;2023-04-25T04:43:13;5.07;;;2.37;;
13568;SDS011;6856;51.460;7.158;2023-04-25T04:45:48;5.40;;;2.40;;
13568;SDS011;6856;51.460;7.158;2023-04-25T04:48:22;4.97;;;2.20;;
13568;SDS011;6856;51.460;7.158;2023-04-25T04:50:56;6.97;;;2.43;;
13568;SDS011;6856;51.460;7.158;2023-04-25T04:53:30;5.00;;;2.30;;
13568;SDS011;6856;51.460;7.158;2023-04-25T04:56:06;6.03;;;2.13;;
13568;SDS011;6856;51.460;7.158;2023-04-25T04:58:42;3.50;;;2.00;;
13568;SDS011;6856;51.460;7.158;2023-04-25T05:01:20;4.63;;;1.97;;
13568;SDS011;6856;51.460;7.158;2023-04-25T05:03:54;7.93;;;2.00;;
13568;SDS011;6856;51.460;7.158;2023-04-25T05:06:32;5.27;;;2.37;;
13568;SDS011;6856;51.460;7.158;2023-04-25T05:09:06;3.47;;;2.00;;
13568;SDS011;6856;51.460;7.158;2023-04-25T05:11:40;5.50;;;2.10;;
13568;SDS011;6856;51.460;7.158;2023-04-25T05:14:15;3.50;;;1.73;;
13568;SDS011;6856;51.460;7.158;2023-04-25T05:16:49;5.13;;;1.80;;
13568;SDS011;6856;51.460;7.158;2023-04-25T05:19:23;6.63;;;2.40;;
13568;SDS011;6856;51.460;7.158;2023-04-25T05:21:59;4.87;;;2.30;;
13568;SDS011;6856;51.460;7.158;2023-04-25T05:24:32;5.43;;;1.97;;
13568;SDS011;6856;51.460;7.158;2023-04-25T05:27:09;3.17;;;1.67;;
13568;SDS011;6856;51.460;7.158;2023-04-25T05:29:44;4.77;;;2.70;;
13568;SDS011;6856;51.460;7.158;2023-04-25T05:32:17;5.13;;;2.20;;
13568;SDS011;6856;51.460;7.158;2023-04-25T05:34:51;5.27;;;2.40;;
13568;SDS011;6856;51.460;7.158;2023-04-25T05:37:26;7.77;;;3.57;;
13568;SDS011;6856;51.460;7.158;2023-04-25T05:40:02;7.27;;;3.47;;
13568;SDS011;6856;51.460;7.158;2023-04-25T05:42:38;6.13;;;3.87;;
13568;SDS011;6856;51.460;7.158;2023-04-25T05:45:13;8.57;;;3.73;;
13568;SDS011;6856;51.460;7.158;2023-04-25T05:47:47;11.70;;;4.20;;
13568;SDS011;6856;51.460;7.158;2023-04-25T05:50:23;7.00;;;3.93;;
13568;SDS011;6856;51.460;7.158;2023-04-25T05:52:57;11.57;;;4.27;;
13568;SDS011;6856;51.460;7.158;2023-04-25T05:55:31;9.87;;;4.23;;
13568;SDS011;6856;51.460;7.158;2023-04-25T05:58:05;7.40;;;3.60;;
13568;SDS011;6856;51.460;7.158;2023-04-25T06:00:40;6.63;;;3.80;;
13568;SDS011;6856;51.460;7.158;2023-04-25T06:03:15;8.57;;;3.80;;
13568;SDS011;6856;51.460;7.158;2023-04-25T06:05:51;9.20;;;3.77;;
13568;SDS011;6856;51.460;7.158;2023-04-25T06:08:25;9.33;;;3.83;;
13568;SDS011;6856;51.460;7.158;2023-04-25T06:10:58;7.97;;;3.00;;
13568;SDS011;6856;51.460;7.158;2023-04-25T06:13:32;6.10;;;3.53;;
13568;SDS011;6856;51.460;7.158;2023-04-25T06:16:07;6.47;;;3.70;;
13568;SDS011;6856;51.460;7.158;2023-04-25T06:18:43;7.03;;;3.33;;
13568;SDS011;6856;51.460;7.158;2023-04-25T06:21:18;7.23;;;3.20;;
13568;SDS011;6856;51.460;7.158;2023-04-25T06:23:52;9.33;;;3.80;;
13568;SDS011;6856;51.460;7.158;2023-04-25T06:26:26;7.57;;;3.20;;
13568;SDS011;6856;51.460;7.158;2023-04-25T06:29:00;9.33;;;3.60;;
13568;SDS011;6856;51.460;7.158;2023-04-25T06:31:35;8.90;;;3.53;;
13568;SDS011;6856;51.460;7.158;2023-04-25T06:34:15;7.47;;;3.30;;
13568;SDS011;6856;51.460;7.158;2023-04-25T06:36:48;6.97;;;3.30;;
13568;SDS011;6856;51.460;7.158;2023-04-25T06:39:28;6.37;;;3.07;;
13568;SDS011;6856;51.460;7.158;2023-04-25T06:42:03;8.30;;;3.77;;
13568;SDS011;6856;51.460;7.158;2023-04-25T06:44:39;10.70;;;3.83;;
13568;SDS011;6856;51.460;7.158;2023-04-25T06:47:14;9.13;;;3.90;;
13568;SDS011;6856;51.460;7.158;2023-04-25T06:49:48;10.13;;;3.63;;
13568;SDS011;6856;51.460;7.158;2023-04-25T06:52:25;7.17;;;3.43;;
13568;SDS011;6856;51.460;7.158;2023-04-25T06:55:03;7.73;;;3.90;;
13568;SDS011;6856;51.460;7.158;2023-04-25T06:57:40;6.33;;;3.30;;
13568;SDS011;6856;51.460;7.158;2023-04-25T07:00:15;8.40;;;3.70;;
13568;SDS011;6856;51.460;7.158;2023-04-25T07:02:51;7.57;;;3.17;;
13568;SDS011;6856;51.460;7.158;2023-04-25T07:05:25;8.87;;;3.47;;
13568;SDS011;6856;51.460;7.158;2023-04-25T07:07:59;11.57;;;3.13;;
13568;SDS011;6856;51.460;7.158;2023-04-25T07:10:36;9.60;;;3.30;;
13568;SDS011;6856;51.460;7.158;2023-04-25T07:13:10;5.70;;;2.63;;
13568;SDS011;6856;51.460;7.158;2023-04-25T07:15:47;6.73;;;2.63;;
13568;SDS011;6856;51.460;7.158;2023-04-25T07:18:29;5.93;;;2.40;;
13568;SDS011;6856;51.460;7.158;2023-04-25T07:21:03;4.60;;;2.30;;
13568;SDS011;6856;51.460;7.158;2023-04-25T07:23:37;7.43;;;2.30;;
13568;SDS011;6856;51.460;7.158;2023-04-25T07:26:12;7.73;;;2.20;;
13568;SDS011;6856;51.460;7.158;2023-04-25T07:28:46;3.93;;;1.70;;
13568;SDS011;6856;51.460;7.158;2023-04-25T07:31:23;3.87;;;1.50;;
13568;SDS011;6856;51.460;7.158;2023-04-25T07:34:02;4.53;;;1.77;;
13568;SDS011;6856;51.460;7.158;2023-04-25T07:36:37;3.10;;;1.60;;
13568;SDS011;6856;51.460;7.158;2023-04-25T07:39:11;4.40;;;2.20;;
13568;SDS011;6856;51.460;7.158;2023-04-25T07:41:45;5.87;;;1.97;;
13568;SDS011;6856;51.460;7.158;2023-04-25T07:44:20;7.47;;;2.20;;
13568;SDS011;6856;51.460;7.158;2023-04-25T07:46:59;5.83;;;2.00;;
13568;SDS011;6856;51.460;7.158;2023-04-25T07:49:37;4.63;;;1.90;;
13568;SDS011;6856;51.460;7.158;2023-04-25T07:52:11;5.47;;;2.10;;
13568;SDS011;6856;51.460;7.158;2023-04-25T07:54:45;3.77;;;2.00;;
13568;SDS011;6856;51.460;7.158;2023-04-25T07:57:22;4.80;;;2.03;;
13568;SDS011;6856;51.460;7.158;2023-04-25T07:59:56;4.03;;;1.70;;
13568;SDS011;6856;51.460;7.158;2023-04-25T08:02:30;5.97;;;2.00;;
13568;SDS011;6856;51.460;7.158;2023-04-25T08:05:09;4.93;;;1.97;;
13568;SDS011;6856;51.460;7.158;2023-04-25T08:07:46;3.00;;;1.63;;
13568;SDS011;6856;51.460;7.158;2023-04-25T08:10:22;4.70;;;2.10;;
13568;SDS011;6856;51.460;7.158;2023-04-25T08:12:55;8.07;;;2.57;;
13568;SDS011;6856;51.460;7.158;2023-04-25T08:15:29;6.20;;;2.83;;
13568;SDS011;6856;51.460;7.158;2023-04-25T08:18:03;8.87;;;2.40;;
13568;SDS011;6856;51.460;7.158;2023-04-25T08:20:38;7.67;;;2.87;;
13568;SDS011;6856;51.460;7.158;2023-04-25T08:23:12;4.37;;;2.40;;
13568;SDS011;6856;51.460;7.158;2023-04-25T08:25:46;5.03;;;2.67;;
13568;SDS011;6856;51.460;7.158;2023-04-25T08:28:21;5.23;;;2.87;;
13568;SDS011;6856;51.460;7.158;2023-04-25T08:30:55;4.93;;;2.23;;
13568;SDS011;6856;51.460;7.158;2023-04-25T08:33:30;7.83;;;2.30;;
13568;SDS011;6856;51.460;7.158;2023-04-25T08:36:06;7.50;;;1.90;;
13568;SDS011;6856;51.460;7.158;2023-04-25T08:38:40;4.73;;;1.77;;
13568;SDS011;6856;51.460;7.158;2023-04-25T08:41:14;4.27;;;1.63;;
13568;SDS011;6856;51.460;7.158;2023-04-25T08:43:50;3.63;;;1.53;;
13568;SDS011;6856;51.460;7.158;2023-04-25T08:46:26;4.47;;;1.60;;
13568;SDS011;6856;51.460;7.158;2023-04-25T08:49:01;4.90;;;1.37;;
13568;SDS011;6856;51.460;7.158;2023-04-25T08:51:40;6.23;;;1.57;;
13568;SDS011;6856;51.460;7.158;2023-04-25T08:54:19;4.03;;;1.57;;
13568;SDS011;6856;51.460;7.158;2023-04-25T08:57:01;3.37;;;1.73;;
13568;SDS011;6856;51.460;7.158;2023-04-25T08:59:37;4.80;;;1.80;;
13568;SDS011;6856;51.460;7.158;2023-04-25T09:02:17;3.50;;;1.30;;
13568;SDS011;6856;51.460;7.158;2023-04-25T09:04:52;4.67;;;1.43;;
13568;SDS011;6856;51.460;7.158;2023-04-25T09:07:29;5.50;;;1.57;;
13568;SDS011;6856;51.460;7.158;2023-04-25T09:10:03;2.83;;;1.33;;
13568;SDS011;6856;51.460;7.158;2023-04-25T09:12:38;5.93;;;2.03;;
13568;SDS011;6856;51.460;7.158;2023-04-25T09:15:12;7.00;;;1.80;;
13568;SDS011;6856;51.460;7.158;2023-04-25T09:17:54;5.50;;;1.67;;
13568;SDS011;6856;51.460;7.158;2023-04-25T09:20:29;6.27;;;1.93;;
13568;SDS011;6856;51.460;7.158;2023-04-25T09:23:13;4.23;;;2.00;;
13568;SDS011;6856;51.460;7.158;2023-04-25T09:25:48;4.77;;;1.97;;
13568;SDS011;6856;51.460;7.158;2023-04-25T09:28:24;5.07;;;2.13;;
13568;SDS011;6856;51.460;7.158;2023-04-25T09:31:01;7.47;;;2.53;;
13568;SDS011;6856;51.460;7.158;2023-04-25T09:33:35;3.67;;;1.70;;
13568;SDS011;6856;51.460;7.158;2023-04-25T09:36:11;4.93;;;1.60;;
13568;SDS011;6856;51.460;7.158;2023-04-25T09:38:51;6.17;;;2.23;;
13568;SDS011;6856;51.460;7.158;2023-04-25T09:41:25;3.20;;;1.37;;
13568;SDS011;6856;51.460;7.158;2023-04-25T09:43:59;3.80;;;1.50;;
13568;SDS011;6856;51.460;7.158;2023-04-25T09:46:34;5.17;;;1.60;;
13568;SDS011;6856;51.460;7.158;2023-04-25T09:49:09;3.10;;;1.23;;
13568;SDS011;6856;51.460;7.158;2023-04-25T09:51:43;3.97;;;1.53;;
13568;SDS011;6856;51.460;7.158;2023-04-25T09:54:32;2.27;;;0.90;;
13568;SDS011;6856;51.460;7.158;2023-04-25T09:57:10;4.07;;;1.10;;
13568;SDS011;6856;51.460;7.158;2023-04-25T09:59:46;2.80;;;1.10;;
13568;SDS011;6856;51.460;7.158;2023-04-25T10:02:25;2.53;;;1.10;;
13568;SDS011;6856;51.460;7.158;2023-04-25T10:05:00;2.10;;;1.10;;
13568;SDS011;6856;51.460;7.158;2023-04-25T10:07:40;3.37;;;1.23;;
13568;SDS011;6856;51.460;7.158;2023-04-25T10:10:16;4.30;;;1.17;;
13568;SDS011;6856;51.460;7.158;2023-04-25T10:12:58;5.10;;;1.30;;
13568;SDS011;6856;51.460;7.158;2023-04-25T10:15:34;1.80;;;0.93;;
13568;SDS011;6856;51.460;7.158;2023-04-25T10:18:10;4.23;;;1.27;;
13568;SDS011;6856;51.460;7.158;2023-04-25T10:20:45;2.80;;;1.00;;
13568;SDS011;6856;51.460;7.158;2023-04-25T10:23:24;5.47;;;1.30;;
13568;SDS011;6856;51.460;7.158;2023-04-25T10:26:01;2.73;;;1.03;;
13568;SDS011;6856;51.460;7.158;2023-04-25T10:31:33;3.90;;;1.13;;
13568;SDS011;6856;51.460;7.158;2023-04-25T10:34:19;3.77;;;1.00;;
13568;SDS011;6856;51.460;7.158;2023-04-25T10:37:13;2.97;;;1.07;;
13568;SDS011;6856;51.460;7.158;2023-04-25T10:39:47;3.10;;;1.00;;
13568;SDS011;6856;51.460;7.158;2023-04-25T10:42:23;2.47;;;1.27;;
13568;SDS011;6856;51.460;7.158;2023-04-25T10:45:04;2.53;;;0.90;;
13568;SDS011;6856;51.460;7.158;2023-04-25T10:47:45;3.37;;;1.20;;
13568;SDS011;6856;51.460;7.158;2023-04-25T10:50:19;2.97;;;1.37;;
13568;SDS011;6856;51.460;7.158;2023-04-25T10:52:54;4.43;;;1.33;;
13568;SDS011;6856;51.460;7.158;2023-04-25T10:55:31;4.87;;;1.40;;
13568;SDS011;6856;51.460;7.158;2023-04-25T10:58:24;2.77;;;1.13;;
13568;SDS011;6856;51.460;7.158;2023-04-25T11:01:00;2.37;;;1.13;;
13568;SDS011;6856;51.460;7.158;2023-04-25T11:03:37;3.63;;;1.37;;
13568;SDS011;6856;51.460;7.158;2023-04-25T11:06:17;2.93;;;1.40;;
13568;SDS011;6856;51.460;7.158;2023-04-25T11:09:00;3.67;;;1.00;;
13568;SDS011;6856;51.460;7.158;2023-04-25T11:11:36;4.10;;;1.30;;
13568;SDS011;6856;51.460;7.158;2023-04-25T11:14:11;4.13;;;1.40;;
13568;SDS011;6856;51.460;7.158;2023-04-25T11:16:45;4.90;;;1.50;;
13568;SDS011;6856;51.460;7.158;2023-04-25T11:19:19;4.13;;;1.40;;
13568;SDS011;6856;51.460;7.158;2023-04-25T11:21:54;2.10;;;1.10;;
13568;SDS011;6856;51.460;7.158;2023-04-25T11:24:29;2.57;;;1.30;;
13568;SDS011;6856;51.460;7.158;2023-04-25T11:27:05;3.93;;;1.53;;
13568;SDS011;6856;51.460;7.158;2023-04-25T11:29:40;6.83;;;1.40;;
13568;SDS011;6856;51.460;7.158;2023-04-25T11:32:15;6.87;;;1.57;;
13568;SDS011;6856;51.460;7.158;2023-04-25T11:34:52;2.80;;;1.13;;
13568;SDS011;6856;51.460;7.158;2023-04-25T11:37:25;3.60;;;1.47;;
13568;SDS011;6856;51.460;7.158;2023-04-25T11:40:02;2.60;;;1.33;;
13568;SDS011;6856;51.460;7.158;2023-04-25T11:42:43;3.50;;;1.50;;
13568;SDS011;6856;51.460;7.158;2023-04-25T11:45:20;3.37;;;1.40;;
13568;SDS011;6856;51.460;7.158;2023-04-25T11:47:56;3.73;;;1.17;;
13568;SDS011;6856;51.460;7.158;2023-04-25T11:50:33;3.33;;;1.23;;
13568;SDS011;6856;51.460;7.158;2023-04-25T11:53:07;3.90;;;1.20;;
13568;SDS011;6856;51.460;7.158;2023-04-25T11:55:44;2.47;;;1.03;;
13568;SDS011;6856;51.460;7.158;2023-04-25T11:58:19;2.10;;;0.93;;
13568;SDS011;6856;51.460;7.158;2023-04-25T12:00:55;3.43;;;1.23;;
13568;SDS011;6856;51.460;7.158;2023-04-25T12:03:37;4.80;;;1.63;;
13568;SDS011;6856;51.460;7.158;2023-04-25T12:06:23;2.80;;;1.00;;
13568;SDS011;6856;51.460;7.158;2023-04-25T12:09:01;2.23;;;0.90;;
13568;SDS011;6856;51.460;7.158;2023-04-25T12:14:34;1.87;;;1.07;;
13568;SDS011;6856;51.460;7.158;2023-04-25T12:17:12;1.80;;;0.80;;
13568;SDS011;6856;51.460;7.158;2023-04-25T12:19:47;3.47;;;1.20;;
13568;SDS011;6856;51.460;7.158;2023-04-25T12:22:22;2.10;;;0.93;;
13568;SDS011;6856;51.460;7.158;2023-04-25T12:24:57;3.80;;;1.37;;
13568;SDS011;6856;51.460;7.158;2023-04-25T12:27:31;3.47;;;1.10;;
13568;SDS011;6856;51.460;7.158;2023-04-25T12:30:07;2.30;;;0.90;;
13568;SDS011;6856;51.460;7.158;2023-04-25T12:32:47;2.47;;;1.00;;
13568;SDS011;6856;51.460;7.158;2023-04-25T12:35:26;2.07;;;1.13;;
13568;SDS011;6856;51.460;7.158;2023-04-25T12:38:00;2.23;;;0.90;;
13568;SDS011;6856;51.460;7.158;2023-04-25T12:40:33;1.73;;;0.93;;
13568;SDS011;6856;51.460;7.158;2023-04-25T12:43:08;2.00;;;1.00;;
13568;SDS011;6856;51.460;7.158;2023-04-25T12:45:44;3.43;;;1.00;;
13568;SDS011;6856;51.460;7.158;2023-04-25T12:48:25;1.53;;;0.83;;
13568;SDS011;6856;51.460;7.158;2023-04-25T12:50:59;1.20;;;0.80;;
13568;SDS011;6856;51.460;7.158;2023-04-25T12:53:32;2.00;;;1.07;;
13568;SDS011;6856;51.460;7.158;2023-04-25T12:56:08;1.67;;;1.00;;
13568;SDS011;6856;51.460;7.158;2023-04-25T12:58:44;4.00;;;1.10;;
13568;SDS011;6856;51.460;7.158;2023-04-25T13:01:20;2.10;;;1.10;;
13568;SDS011;6856;51.460;7.158;2023-04-25T13:03:59;4.23;;;1.03;;
13568;SDS011;6856;51.460;7.158;2023-04-25T13:06:33;3.70;;;0.90;;
13568;SDS011;6856;51.460;7.158;2023-04-25T13:09:07;2.00;;;1.20;;
13568;SDS011;6856;51.460;7.158;2023-04-25T13:11:45;2.70;;;0.80;;
13568;SDS011;6856;51.460;7.158;2023-04-25T13:14:20;2.00;;;0.90;;
13568;SDS011;6856;51.460;7.158;2023-04-25T13:16:53;2.53;;;1.27;;
13568;SDS011;6856;51.460;7.158;2023-04-25T13:19:30;3.57;;;1.10;;
13568;SDS011;6856;51.460;7.158;2023-04-25T13:22:05;2.17;;;0.90;;
13568;SDS011;6856;51.460;7.158;2023-04-25T13:24:40;2.87;;;1.10;;
13568;SDS011;6856;51.460;7.158;2023-04-25T13:27:14;1.93;;;0.93;;
13568;SDS011;6856;51.460;7.158;2023-04-25T13:29:47;2.63;;;1.20;;
13568;SDS011;6856;51.460;7.158;2023-04-25T13:32:24;4.33;;;1.30;;
13568;SDS011;6856;51.460;7.158;2023-04-25T13:34:59;4.40;;;1.43;;
13568;SDS011;6856;51.460;7.158;2023-04-25T13:37:38;2.30;;;1.20;;
13568;SDS011;6856;51.460;7.158;2023-04-25T13:40:15;2.27;;;1.10;;
13568;SDS011;6856;51.460;7.158;2023-04-25T13:42:49;2.93;;;1.00;;
13568;SDS011;6856;51.460;7.158;2023-04-25T13:45:23;3.20;;;1.30;;
13568;SDS011;6856;51.460;7.158;2023-04-25T13:47:58;1.77;;;1.00;;
13568;SDS011;6856;51.460;7.158;2023-04-25T13:50:33;3.37;;;1.10;;
13568;SDS011;6856;51.460;7.158;2023-04-25T13:53:07;1.50;;;0.83;;
13568;SDS011;6856;51.460;7.158;2023-04-25T13:55:41;2.27;;;1.10;;
13568;SDS011;6856;51.460;7.158;2023-04-25T13:58:15;1.97;;;0.90;;
13568;SDS011;6856;51.460;7.158;2023-04-25T14:00:54;3.97;;;1.40;;
13568;SDS011;6856;51.460;7.158;2023-04-25T14:03:27;3.13;;;1.20;;
13568;SDS011;6856;51.460;7.158;2023-04-25T14:06:03;2.53;;;1.10;;
13568;SDS011;6856;51.460;7.158;2023-04-25T14:08:40;2.67;;;0.90;;
13568;SDS011;6856;51.460;7.158;2023-04-25T14:11:14;2.20;;;1.00;;
13568;SDS011;6856;51.460;7.158;2023-04-25T14:13:49;2.27;;;1.00;;
13568;SDS011;6856;51.460;7.158;2023-04-25T14:16:23;2.77;;;0.90;;
13568;SDS011;6856;51.460;7.158;2023-04-25T14:18:58;1.27;;;0.80;;
13568;SDS011;6856;51.460;7.158;2023-04-25T14:21:34;1.43;;;0.70;;
13568;SDS011;6856;51.460;7.158;2023-04-25T14:24:08;1.43;;;0.90;;
13568;SDS011;6856;51.460;7.158;2023-04-25T14:26:43;1.70;;;0.93;;
13568;SDS011;6856;51.460;7.158;2023-04-25T14:29:17;1.33;;;1.00;;
13568;SDS011;6856;51.460;7.158;2023-04-25T14:31:53;3.73;;;0.80;;
13568;SDS011;6856;51.460;7.158;2023-04-25T14:34:28;1.60;;;0.80;;
13568;SDS011;6856;51.460;7.158;2023-04-25T14:37:03;2.37;;;0.90;;
13568;SDS011;6856;51.460;7.158;2023-04-25T14:39:37;1.37;;;0.80;;
13568;SDS011;6856;51.460;7.158;2023-04-25T14:42:11;1.07;;;0.70;;
13568;SDS011;6856;51.460;7.158;2023-04-25T14:44:45;1.07;;;0.57;;
13568;SDS011;6856;51.460;7.158;2023-04-25T14:47:22;1.43;;;0.70;;
13568;SDS011;6856;51.460;7.158;2023-04-25T14:49:57;1.63;;;0.60;;
13568;SDS011;6856;51.460;7.158;2023-04-25T14:52:33;1.60;;;0.67;;
13568;SDS011;6856;51.460;7.158;2023-04-25T14:55:10;1.90;;;0.80;;
13568;SDS011;6856;51.460;7.158;2023-04-25T14:57:45;1.40;;;0.63;;
13568;SDS011;6856;51.460;7.158;2023-04-25T15:00:22;1.77;;;0.73;;
13568;SDS011;6856;51.460;7.158;2023-04-25T15:02:56;2.57;;;0.83;;
13568;SDS011;6856;51.460;7.158;2023-04-25T15:05:31;2.77;;;0.70;;
13568;SDS011;6856;51.460;7.158;2023-04-25T15:08:07;1.67;;;0.60;;
13568;SDS011;6856;51.460;7.158;2023-04-25T15:10:42;1.30;;;0.77;;
13568;SDS011;6856;51.460;7.158;2023-04-25T15:13:18;1.03;;;0.70;;
13568;SDS011;6856;51.460;7.158;2023-04-25T15:15:56;2.97;;;1.00;;
13568;SDS011;6856;51.460;7.158;2023-04-25T15:18:31;3.40;;;0.97;;
13568;SDS011;6856;51.460;7.158;2023-04-25T15:21:05;2.20;;;0.90;;
13568;SDS011;6856;51.460;7.158;2023-04-25T15:23:40;3.03;;;1.03;;
13568;SDS011;6856;51.460;7.158;2023-04-25T15:26:15;3.40;;;1.30;;
13568;SDS011;6856;51.460;7.158;2023-04-25T15:28:48;2.17;;;0.83;;
13568;SDS011;6856;51.460;7.158;2023-04-25T15:31:22;2.47;;;0.87;;
13568;SDS011;6856;51.460;7.158;2023-04-25T15:33:56;2.80;;;1.20;;
13568;SDS011;6856;51.460;7.158;2023-04-25T15:36:29;1.47;;;0.90;;
13568;SDS011;6856;51.460;7.158;2023-04-25T15:39:07;3.70;;;1.50;;
13568;SDS011;6856;51.460;7.158;2023-04-25T15:41:41;1.37;;;0.80;;
13568;SDS011;6856;51.460;7.158;2023-04-25T15:44:15;1.77;;;0.93;;
13568;SDS011;6856;51.460;7.158;2023-04-25T15:46:51;1.30;;;0.70;;
13568;SDS011;6856;51.460;7.158;2023-04-25T15:49:28;1.47;;;0.83;;
13568;SDS011;6856;51.460;7.158;2023-04-25T15:52:01;2.20;;;0.80;;
13568;SDS011;6856;51.460;7.158;2023-04-25T15:54:37;2.50;;;0.90;;
13568;SDS011;6856;51.460;7.158;2023-04-25T15:57:10;2.53;;;0.87;;